sensor_id;sensor_type;location;lat;lon;timestamp;P1;durP1;ratioP1;P2;durP2;ratioP2
66073;SDS011;52859;48.104;11.574;2022-08-01T00:01:55;2.40;;;2.25;;
66073;SDS011;52859;48.104;11.574;2022-08-01T00:04:21;3.13;;;2.55;;
66073;SDS011;52859;48.104;11.574;2022-08-01T00:06:48;2.53;;;2.22;;
66073;SDS011;52859;48.104;11.574;2022-08-01T00:09:14;5.25;;;2.30;;
66073;SDS011;52859;48.104;11.574;2022-08-01T00:11:49;2.88;;;2.67;;
66073;SDS011;52859;48.104;11.574;2022-08-01T00:14:34;5.03;;;2.63;;
66073;SDS011;52859;48.104;11.574;2022-08-01T00:17:01;3.50;;;2.28;;
66073;SDS011;52859;48.104;11.574;2022-08-01T00:19:32;2.85;;;2.22;;
66073;SDS011;52859;48.104;11.574;2022-08-01T00:21:59;2.35;;;2.10;;
66073;SDS011;52859;48.104;11.574;2022-08-01T00:24:25;2.90;;;2.40;;
66073;SDS011;52859;48.104;11.574;2022-08-01T00:26:51;3.25;;;2.35;;
66073;SDS011;52859;48.104;11.574;2022-08-01T00:29:18;3.85;;;2.33;;
66073;SDS011;52859;48.104;11.574;2022-08-01T00:32:04;2.67;;;2.47;;
66073;SDS011;52859;48.104;11.574;2022-08-01T00:34:31;4.57;;;2.13;;
66073;SDS011;52859;48.104;11.574;2022-08-01T00:36:57;4.22;;;2.42;;
66073;SDS011;52859;48.104;11.574;2022-08-01T00:39:24;2.53;;;2.30;;
66073;SDS011;52859;48.104;11.574;2022-08-01T00:41:50;2.47;;;2.28;;
66073;SDS011;52859;48.104;11.574;2022-08-01T00:44:25;2.60;;;1.98;;
66073;SDS011;52859;48.104;11.574;2022-08-01T00:46:51;3.00;;;2.22;;
66073;SDS011;52859;48.104;11.574;2022-08-01T00:49:17;2.25;;;2.05;;
66073;SDS011;52859;48.104;11.574;2022-08-01T00:51:44;2.22;;;2.13;;
66073;SDS011;52859;48.104;11.574;2022-08-01T00:54:10;2.50;;;2.30;;
66073;SDS011;52859;48.104;11.574;2022-08-01T00:56:38;2.80;;;2.30;;
66073;SDS011;52859;48.104;11.574;2022-08-01T00:59:04;2.58;;;2.38;;
66073;SDS011;52859;48.104;11.574;2022-08-01T01:01:31;4.18;;;2.40;;
66073;SDS011;52859;48.104;11.574;2022-08-01T01:04:05;4.60;;;2.38;;
66073;SDS011;52859;48.104;11.574;2022-08-01T01:06:41;3.45;;;2.35;;
66073;SDS011;52859;48.104;11.574;2022-08-01T01:09:13;3.28;;;2.20;;
66073;SDS011;52859;48.104;11.574;2022-08-01T01:11:44;4.03;;;2.15;;
66073;SDS011;52859;48.104;11.574;2022-08-01T01:14:21;2.58;;;2.38;;
66073;SDS011;52859;48.104;11.574;2022-08-01T01:16:49;3.15;;;2.90;;
66073;SDS011;52859;48.104;11.574;2022-08-01T01:19:20;2.35;;;2.15;;
66073;SDS011;52859;48.104;11.574;2022-08-01T01:21:52;2.55;;;2.33;;
66073;SDS011;52859;48.104;11.574;2022-08-01T01:29:42;3.97;;;2.35;;
66073;SDS011;52859;48.104;11.574;2022-08-01T01:32:31;2.40;;;2.30;;
66073;SDS011;52859;48.104;11.574;2022-08-01T01:35:02;2.50;;;2.30;;
66073;SDS011;52859;48.104;11.574;2022-08-01T01:37:30;2.10;;;1.98;;
66073;SDS011;52859;48.104;11.574;2022-08-01T01:39:58;2.90;;;2.58;;
66073;SDS011;52859;48.104;11.574;2022-08-01T01:42:25;2.55;;;2.35;;
66073;SDS011;52859;48.104;11.574;2022-08-01T01:44:52;3.55;;;2.50;;
66073;SDS011;52859;48.104;11.574;2022-08-01T01:47:20;2.97;;;2.33;;
66073;SDS011;52859;48.104;11.574;2022-08-01T01:49:47;3.15;;;2.50;;
66073;SDS011;52859;48.104;11.574;2022-08-01T01:52:15;2.40;;;2.20;;
66073;SDS011;52859;48.104;11.574;2022-08-01T01:54:45;3.53;;;2.55;;
66073;SDS011;52859;48.104;11.574;2022-08-01T01:57:13;3.55;;;2.70;;
66073;SDS011;52859;48.104;11.574;2022-08-01T01:59:40;2.85;;;2.47;;
66073;SDS011;52859;48.104;11.574;2022-08-01T02:02:07;3.00;;;2.30;;
66073;SDS011;52859;48.104;11.574;2022-08-01T02:04:35;2.60;;;2.20;;
66073;SDS011;52859;48.104;11.574;2022-08-01T02:07:02;4.55;;;2.50;;
66073;SDS011;52859;48.104;11.574;2022-08-01T02:09:29;2.47;;;2.10;;
66073;SDS011;52859;48.104;11.574;2022-08-01T02:11:57;2.05;;;1.95;;
66073;SDS011;52859;48.104;11.574;2022-08-01T02:14:35;2.92;;;2.33;;
66073;SDS011;52859;48.104;11.574;2022-08-01T02:17:01;2.75;;;2.17;;
66073;SDS011;52859;48.104;11.574;2022-08-01T02:19:30;3.08;;;2.00;;
66073;SDS011;52859;48.104;11.574;2022-08-01T02:22:04;2.63;;;2.38;;
66073;SDS011;52859;48.104;11.574;2022-08-01T02:24:36;3.78;;;2.30;;
66073;SDS011;52859;48.104;11.574;2022-08-01T02:27:07;2.47;;;2.28;;
66073;SDS011;52859;48.104;11.574;2022-08-01T02:29:41;2.58;;;2.38;;
66073;SDS011;52859;48.104;11.574;2022-08-01T02:32:10;2.50;;;2.30;;
66073;SDS011;52859;48.104;11.574;2022-08-01T02:34:38;3.30;;;2.40;;
66073;SDS011;52859;48.104;11.574;2022-08-01T02:37:04;3.05;;;2.22;;
66073;SDS011;52859;48.104;11.574;2022-08-01T02:39:32;2.88;;;2.53;;
66073;SDS011;52859;48.104;11.574;2022-08-01T02:42:02;2.90;;;2.45;;
66073;SDS011;52859;48.104;11.574;2022-08-01T02:44:32;4.55;;;2.28;;
66073;SDS011;52859;48.104;11.574;2022-08-01T02:47:01;3.20;;;2.60;;
66073;SDS011;52859;48.104;11.574;2022-08-01T02:49:31;2.80;;;2.30;;
66073;SDS011;52859;48.104;11.574;2022-08-01T02:52:00;2.90;;;2.60;;
66073;SDS011;52859;48.104;11.574;2022-08-01T02:54:27;2.95;;;2.70;;
66073;SDS011;52859;48.104;11.574;2022-08-01T02:56:55;2.70;;;2.40;;
66073;SDS011;52859;48.104;11.574;2022-08-01T02:59:23;3.08;;;2.47;;
66073;SDS011;52859;48.104;11.574;2022-08-01T03:01:53;4.18;;;2.40;;
66073;SDS011;52859;48.104;11.574;2022-08-01T03:04:21;4.82;;;2.50;;
66073;SDS011;52859;48.104;11.574;2022-08-01T03:06:48;2.53;;;2.00;;
66073;SDS011;52859;48.104;11.574;2022-08-01T03:09:14;3.22;;;2.30;;
66073;SDS011;52859;48.104;11.574;2022-08-01T03:11:42;2.08;;;1.88;;
66073;SDS011;52859;48.104;11.574;2022-08-01T03:14:09;2.05;;;1.92;;
66073;SDS011;52859;48.104;11.574;2022-08-01T03:16:36;3.25;;;2.30;;
66073;SDS011;52859;48.104;11.574;2022-08-01T03:19:04;2.67;;;2.47;;
66073;SDS011;52859;48.104;11.574;2022-08-01T03:21:30;4.47;;;2.33;;
66073;SDS011;52859;48.104;11.574;2022-08-01T03:23:58;2.85;;;1.95;;
66073;SDS011;52859;48.104;11.574;2022-08-01T03:26:29;2.80;;;2.40;;
66073;SDS011;52859;48.104;11.574;2022-08-01T03:28:57;3.22;;;2.15;;
66073;SDS011;52859;48.104;11.574;2022-08-01T03:31:25;2.63;;;2.42;;
66073;SDS011;52859;48.104;11.574;2022-08-01T03:33:52;3.42;;;2.08;;
66073;SDS011;52859;48.104;11.574;2022-08-01T03:36:21;2.90;;;2.70;;
66073;SDS011;52859;48.104;11.574;2022-08-01T03:38:49;2.28;;;2.08;;
66073;SDS011;52859;48.104;11.574;2022-08-01T03:41:18;3.08;;;2.60;;
66073;SDS011;52859;48.104;11.574;2022-08-01T03:43:48;3.83;;;2.45;;
66073;SDS011;52859;48.104;11.574;2022-08-01T03:46:19;2.88;;;2.30;;
66073;SDS011;52859;48.104;11.574;2022-08-01T03:48:47;2.45;;;2.25;;
66073;SDS011;52859;48.104;11.574;2022-08-01T03:51:14;2.72;;;2.53;;
66073;SDS011;52859;48.104;11.574;2022-08-01T03:53:42;4.60;;;2.33;;
66073;SDS011;52859;48.104;11.574;2022-08-01T03:56:08;2.53;;;2.20;;
66073;SDS011;52859;48.104;11.574;2022-08-01T03:58:36;2.60;;;2.38;;
66073;SDS011;52859;48.104;11.574;2022-08-01T04:01:05;2.67;;;2.08;;
66073;SDS011;52859;48.104;11.574;2022-08-01T04:03:41;2.58;;;2.38;;
66073;SDS011;52859;48.104;11.574;2022-08-01T04:06:08;3.75;;;2.40;;
66073;SDS011;52859;48.104;11.574;2022-08-01T04:08:39;2.85;;;2.25;;
66073;SDS011;52859;48.104;11.574;2022-08-01T04:11:07;2.50;;;2.28;;
66073;SDS011;52859;48.104;11.574;2022-08-01T04:13:34;3.25;;;2.55;;
66073;SDS011;52859;48.104;11.574;2022-08-01T04:16:03;3.03;;;2.78;;
66073;SDS011;52859;48.104;11.574;2022-08-01T04:18:30;2.53;;;2.33;;
66073;SDS011;52859;48.104;11.574;2022-08-01T04:20:56;3.85;;;2.50;;
66073;SDS011;52859;48.104;11.574;2022-08-01T04:23:24;4.22;;;2.20;;
66073;SDS011;52859;48.104;11.574;2022-08-01T04:25:51;3.50;;;2.50;;
66073;SDS011;52859;48.104;11.574;2022-08-01T04:28:18;6.20;;;2.50;;
66073;SDS011;52859;48.104;11.574;2022-08-01T04:30:46;3.50;;;2.20;;
66073;SDS011;52859;48.104;11.574;2022-08-01T04:33:13;2.30;;;2.20;;
66073;SDS011;52859;48.104;11.574;2022-08-01T04:35:43;2.50;;;2.30;;
66073;SDS011;52859;48.104;11.574;2022-08-01T04:38:29;2.53;;;2.33;;
66073;SDS011;52859;48.104;11.574;2022-08-01T04:40:56;2.67;;;2.08;;
66073;SDS011;52859;48.104;11.574;2022-08-01T04:43:23;2.72;;;2.50;;
66073;SDS011;52859;48.104;11.574;2022-08-01T04:45:50;2.88;;;2.47;;
66073;SDS011;52859;48.104;11.574;2022-08-01T04:48:17;2.92;;;2.65;;
66073;SDS011;52859;48.104;11.574;2022-08-01T04:50:43;2.67;;;2.30;;
66073;SDS011;52859;48.104;11.574;2022-08-01T04:53:14;2.70;;;2.50;;
66073;SDS011;52859;48.104;11.574;2022-08-01T04:55:40;2.88;;;2.22;;
66073;SDS011;52859;48.104;11.574;2022-08-01T04:58:06;2.33;;;2.13;;
66073;SDS011;52859;48.104;11.574;2022-08-01T05:00:34;2.63;;;2.42;;
66073;SDS011;52859;48.104;11.574;2022-08-01T05:03:00;3.80;;;2.22;;
66073;SDS011;52859;48.104;11.574;2022-08-01T05:05:26;4.47;;;2.30;;
66073;SDS011;52859;48.104;11.574;2022-08-01T05:07:53;4.68;;;2.20;;
66073;SDS011;52859;48.104;11.574;2022-08-01T05:10:19;2.78;;;2.22;;
66073;SDS011;52859;48.104;11.574;2022-08-01T05:12:45;3.13;;;2.25;;
66073;SDS011;52859;48.104;11.574;2022-08-01T05:15:12;3.03;;;2.60;;
66073;SDS011;52859;48.104;11.574;2022-08-01T05:17:40;2.80;;;2.60;;
66073;SDS011;52859;48.104;11.574;2022-08-01T05:20:08;2.95;;;2.67;;
66073;SDS011;52859;48.104;11.574;2022-08-01T05:22:35;3.60;;;2.72;;
66073;SDS011;52859;48.104;11.574;2022-08-01T05:25:01;3.45;;;2.45;;
66073;SDS011;52859;48.104;11.574;2022-08-01T05:27:31;4.82;;;2.40;;
66073;SDS011;52859;48.104;11.574;2022-08-01T05:29:59;3.80;;;3.00;;
66073;SDS011;52859;48.104;11.574;2022-08-01T05:32:25;2.95;;;2.22;;
66073;SDS011;52859;48.104;11.574;2022-08-01T05:34:51;2.17;;;1.98;;
66073;SDS011;52859;48.104;11.574;2022-08-01T05:37:18;3.47;;;2.30;;
66073;SDS011;52859;48.104;11.574;2022-08-01T05:39:45;2.67;;;2.47;;
66073;SDS011;52859;48.104;11.574;2022-08-01T05:42:11;4.60;;;2.25;;
66073;SDS011;52859;48.104;11.574;2022-08-01T05:44:38;2.45;;;2.25;;
66073;SDS011;52859;48.104;11.574;2022-08-01T05:47:04;3.20;;;2.58;;
66073;SDS011;52859;48.104;11.574;2022-08-01T05:49:30;3.80;;;2.67;;
66073;SDS011;52859;48.104;11.574;2022-08-01T05:51:57;2.88;;;2.45;;
66073;SDS011;52859;48.104;11.574;2022-08-01T05:54:24;4.45;;;2.47;;
66073;SDS011;52859;48.104;11.574;2022-08-01T05:56:50;2.53;;;2.33;;
66073;SDS011;52859;48.104;11.574;2022-08-01T05:59:17;4.03;;;2.40;;
66073;SDS011;52859;48.104;11.574;2022-08-01T06:01:43;3.85;;;2.35;;
66073;SDS011;52859;48.104;11.574;2022-08-01T06:04:10;2.88;;;2.22;;
66073;SDS011;52859;48.104;11.574;2022-08-01T06:06:36;5.47;;;2.42;;
66073;SDS011;52859;48.104;11.574;2022-08-01T06:09:03;2.35;;;2.15;;
66073;SDS011;52859;48.104;11.574;2022-08-01T06:11:29;2.95;;;2.50;;
66073;SDS011;52859;48.104;11.574;2022-08-01T06:13:55;3.92;;;2.40;;
66073;SDS011;52859;48.104;11.574;2022-08-01T06:16:22;2.78;;;2.58;;
66073;SDS011;52859;48.104;11.574;2022-08-01T06:18:48;2.10;;;2.00;;
66073;SDS011;52859;48.104;11.574;2022-08-01T06:21:20;3.60;;;2.53;;
66073;SDS011;52859;48.104;11.574;2022-08-01T06:23:46;2.80;;;2.20;;
66073;SDS011;52859;48.104;11.574;2022-08-01T06:26:12;5.00;;;2.72;;
66073;SDS011;52859;48.104;11.574;2022-08-01T06:28:39;3.33;;;2.50;;
66073;SDS011;52859;48.104;11.574;2022-08-01T06:31:05;2.22;;;2.05;;
66073;SDS011;52859;48.104;11.574;2022-08-01T06:33:32;2.40;;;2.25;;
66073;SDS011;52859;48.104;11.574;2022-08-01T06:35:58;2.60;;;2.40;;
66073;SDS011;52859;48.104;11.574;2022-08-01T06:38:24;3.65;;;2.40;;
66073;SDS011;52859;48.104;11.574;2022-08-01T06:40:51;2.55;;;2.35;;
66073;SDS011;52859;48.104;11.574;2022-08-01T06:43:17;3.55;;;2.60;;
66073;SDS011;52859;48.104;11.574;2022-08-01T06:45:44;2.72;;;2.40;;
66073;SDS011;52859;48.104;11.574;2022-08-01T06:48:11;3.47;;;2.50;;
66073;SDS011;52859;48.104;11.574;2022-08-01T06:50:37;3.28;;;2.20;;
66073;SDS011;52859;48.104;11.574;2022-08-01T06:53:04;3.88;;;2.47;;
66073;SDS011;52859;48.104;11.574;2022-08-01T06:55:30;2.58;;;2.40;;
66073;SDS011;52859;48.104;11.574;2022-08-01T06:57:56;2.50;;;2.30;;
66073;SDS011;52859;48.104;11.574;2022-08-01T07:00:23;2.78;;;2.47;;
66073;SDS011;52859;48.104;11.574;2022-08-01T07:02:53;3.88;;;2.35;;
66073;SDS011;52859;48.104;11.574;2022-08-01T07:05:20;3.58;;;2.70;;
66073;SDS011;52859;48.104;11.574;2022-08-01T07:07:47;3.45;;;2.55;;
66073;SDS011;52859;48.104;11.574;2022-08-01T07:10:13;3.63;;;2.58;;
66073;SDS011;52859;48.104;11.574;2022-08-01T07:12:40;2.20;;;2.00;;
66073;SDS011;52859;48.104;11.574;2022-08-01T07:15:08;3.15;;;2.35;;
66073;SDS011;52859;48.104;11.574;2022-08-01T07:17:41;2.55;;;2.35;;
66073;SDS011;52859;48.104;11.574;2022-08-01T07:20:08;3.00;;;2.70;;
66073;SDS011;52859;48.104;11.574;2022-08-01T07:22:36;3.83;;;2.72;;
66073;SDS011;52859;48.104;11.574;2022-08-01T07:25:03;2.53;;;2.33;;
66073;SDS011;52859;48.104;11.574;2022-08-01T07:27:33;2.90;;;2.70;;
66073;SDS011;52859;48.104;11.574;2022-08-01T07:30:00;3.50;;;2.45;;
66073;SDS011;52859;48.104;11.574;2022-08-01T07:32:27;2.55;;;2.25;;
66073;SDS011;52859;48.104;11.574;2022-08-01T07:34:55;3.08;;;2.53;;
66073;SDS011;52859;48.104;11.574;2022-08-01T07:37:22;2.50;;;2.30;;
66073;SDS011;52859;48.104;11.574;2022-08-01T07:40:10;5.90;;;2.40;;
66073;SDS011;52859;48.104;11.574;2022-08-01T07:42:36;4.05;;;2.67;;
66073;SDS011;52859;48.104;11.574;2022-08-01T07:45:03;2.67;;;2.47;;
66073;SDS011;52859;48.104;11.574;2022-08-01T07:47:29;2.42;;;2.22;;
66073;SDS011;52859;48.104;11.574;2022-08-01T07:49:59;3.72;;;2.42;;
66073;SDS011;52859;48.104;11.574;2022-08-01T07:52:25;2.70;;;2.50;;
66073;SDS011;52859;48.104;11.574;2022-08-01T07:54:53;4.47;;;2.78;;
66073;SDS011;52859;48.104;11.574;2022-08-01T07:57:19;2.75;;;2.55;;
66073;SDS011;52859;48.104;11.574;2022-08-01T07:59:46;3.33;;;2.33;;
66073;SDS011;52859;48.104;11.574;2022-08-01T08:02:12;4.43;;;2.90;;
66073;SDS011;52859;48.104;11.574;2022-08-01T08:04:38;3.15;;;2.80;;
66073;SDS011;52859;48.104;11.574;2022-08-01T08:07:05;2.85;;;2.60;;
66073;SDS011;52859;48.104;11.574;2022-08-01T08:09:32;4.25;;;2.70;;
66073;SDS011;52859;48.104;11.574;2022-08-01T08:12:03;2.95;;;2.50;;
66073;SDS011;52859;48.104;11.574;2022-08-01T08:14:30;3.10;;;2.53;;
66073;SDS011;52859;48.104;11.574;2022-08-01T08:16:58;2.70;;;2.50;;
66073;SDS011;52859;48.104;11.574;2022-08-01T08:19:27;2.92;;;2.72;;
66073;SDS011;52859;48.104;11.574;2022-08-01T08:22:03;3.63;;;2.72;;
66073;SDS011;52859;48.104;11.574;2022-08-01T08:24:30;2.78;;;2.58;;
66073;SDS011;52859;48.104;11.574;2022-08-01T08:26:57;2.60;;;2.40;;
66073;SDS011;52859;48.104;11.574;2022-08-01T08:29:24;3.58;;;2.63;;
66073;SDS011;52859;48.104;11.574;2022-08-01T08:31:52;2.70;;;2.50;;
66073;SDS011;52859;48.104;11.574;2022-08-01T08:34:19;3.17;;;2.85;;
66073;SDS011;52859;48.104;11.574;2022-08-01T08:36:46;2.50;;;2.30;;
66073;SDS011;52859;48.104;11.574;2022-08-01T08:39:14;3.83;;;2.50;;
66073;SDS011;52859;48.104;11.574;2022-08-01T08:41:44;2.65;;;2.42;;
66073;SDS011;52859;48.104;11.574;2022-08-01T08:44:15;2.55;;;2.35;;
66073;SDS011;52859;48.104;11.574;2022-08-01T08:46:43;2.45;;;2.30;;
66073;SDS011;52859;48.104;11.574;2022-08-01T08:49:10;4.10;;;2.50;;
66073;SDS011;52859;48.104;11.574;2022-08-01T08:51:41;4.57;;;2.58;;
66073;SDS011;52859;48.104;11.574;2022-08-01T08:54:07;2.78;;;2.55;;
66073;SDS011;52859;48.104;11.574;2022-08-01T08:56:36;2.30;;;2.10;;
66073;SDS011;52859;48.104;11.574;2022-08-01T08:59:03;4.68;;;2.42;;
66073;SDS011;52859;48.104;11.574;2022-08-01T09:01:31;3.53;;;2.10;;
66073;SDS011;52859;48.104;11.574;2022-08-01T09:03:58;2.30;;;2.10;;
66073;SDS011;52859;48.104;11.574;2022-08-01T09:06:25;5.95;;;2.15;;
66073;SDS011;52859;48.104;11.574;2022-08-01T09:08:52;2.00;;;1.90;;
66073;SDS011;52859;48.104;11.574;2022-08-01T09:11:20;2.20;;;2.10;;
66073;SDS011;52859;48.104;11.574;2022-08-01T09:16:30;3.03;;;1.90;;
66073;SDS011;52859;48.104;11.574;2022-08-01T09:22:13;2.50;;;2.30;;
66073;SDS011;52859;48.104;11.574;2022-08-01T09:24:40;2.38;;;2.17;;
66073;SDS011;52859;48.104;11.574;2022-08-01T09:27:17;2.33;;;2.15;;
66073;SDS011;52859;48.104;11.574;2022-08-01T09:29:47;2.30;;;2.10;;
66073;SDS011;52859;48.104;11.574;2022-08-01T09:32:26;2.90;;;2.00;;
66073;SDS011;52859;48.104;11.574;2022-08-01T09:35:21;3.47;;;2.20;;
66073;SDS011;52859;48.104;11.574;2022-08-01T09:37:46;2.20;;;2.00;;
66073;SDS011;52859;48.104;11.574;2022-08-01T09:40:13;1.80;;;1.67;;
66073;SDS011;52859;48.104;11.574;2022-08-01T09:42:40;1.80;;;1.70;;
66073;SDS011;52859;48.104;11.574;2022-08-01T09:45:06;1.95;;;1.83;;
66073;SDS011;52859;48.104;11.574;2022-08-01T09:47:36;1.80;;;1.70;;
66073;SDS011;52859;48.104;11.574;2022-08-01T09:50:04;1.55;;;1.45;;
66073;SDS011;52859;48.104;11.574;2022-08-01T09:52:36;1.80;;;1.70;;
66073;SDS011;52859;48.104;11.574;2022-08-01T09:55:06;2.17;;;1.73;;
66073;SDS011;52859;48.104;11.574;2022-08-01T09:57:32;2.58;;;1.70;;
66073;SDS011;52859;48.104;11.574;2022-08-01T09:59:59;2.00;;;1.90;;
66073;SDS011;52859;48.104;11.574;2022-08-01T10:02:38;1.85;;;1.75;;
66073;SDS011;52859;48.104;11.574;2022-08-01T10:05:07;1.85;;;1.55;;
66073;SDS011;52859;48.104;11.574;2022-08-01T10:07:35;4.57;;;1.92;;
66073;SDS011;52859;48.104;11.574;2022-08-01T10:10:13;1.80;;;1.45;;
66073;SDS011;52859;48.104;11.574;2022-08-01T10:12:40;1.70;;;1.60;;
66073;SDS011;52859;48.104;11.574;2022-08-01T10:15:11;1.80;;;1.60;;
66073;SDS011;52859;48.104;11.574;2022-08-01T10:17:40;2.40;;;2.20;;
66073;SDS011;52859;48.104;11.574;2022-08-01T10:20:18;3.22;;;2.33;;
66073;SDS011;52859;48.104;11.574;2022-08-01T10:23:00;1.80;;;1.52;;
66073;SDS011;52859;48.104;11.574;2022-08-01T10:25:35;3.65;;;1.55;;
66073;SDS011;52859;48.104;11.574;2022-08-01T10:28:15;2.40;;;1.70;;
66073;SDS011;52859;48.104;11.574;2022-08-01T10:30:49;1.35;;;1.30;;
66073;SDS011;52859;48.104;11.574;2022-08-01T10:33:17;1.50;;;1.40;;
66073;SDS011;52859;48.104;11.574;2022-08-01T10:36:04;2.22;;;1.75;;
66073;SDS011;52859;48.104;11.574;2022-08-01T10:38:34;1.35;;;1.25;;
66073;SDS011;52859;48.104;11.574;2022-08-01T10:41:02;2.10;;;1.50;;
66073;SDS011;52859;48.104;11.574;2022-08-01T10:43:33;1.88;;;1.52;;
66073;SDS011;52859;48.104;11.574;2022-08-01T10:46:01;2.35;;;1.60;;
66073;SDS011;52859;48.104;11.574;2022-08-01T10:50:55;2.10;;;1.48;;
66073;SDS011;52859;48.104;11.574;2022-08-01T10:53:25;1.88;;;1.70;;
66073;SDS011;52859;48.104;11.574;2022-08-01T10:56:07;1.42;;;1.25;;
66073;SDS011;52859;48.104;11.574;2022-08-01T10:58:39;2.97;;;1.55;;
66073;SDS011;52859;48.104;11.574;2022-08-01T11:01:16;1.58;;;1.40;;
66073;SDS011;52859;48.104;11.574;2022-08-01T11:06:26;2.00;;;1.38;;
66073;SDS011;52859;48.104;11.574;2022-08-01T11:08:55;2.47;;;1.40;;
66073;SDS011;52859;48.104;11.574;2022-08-01T11:11:26;4.82;;;1.30;;
66073;SDS011;52859;48.104;11.574;2022-08-01T11:14:05;1.63;;;1.48;;
66073;SDS011;52859;48.104;11.574;2022-08-01T11:16:40;2.40;;;1.50;;
66073;SDS011;52859;48.104;11.574;2022-08-01T11:19:07;1.40;;;1.30;;
66073;SDS011;52859;48.104;11.574;2022-08-01T11:27:16;2.85;;;1.52;;
66073;SDS011;52859;48.104;11.574;2022-08-01T11:32:33;2.28;;;1.52;;
66073;SDS011;52859;48.104;11.574;2022-08-01T11:35:20;1.42;;;1.33;;
66073;SDS011;52859;48.104;11.574;2022-08-01T11:37:47;3.20;;;1.63;;
66073;SDS011;52859;48.104;11.574;2022-08-01T11:40:22;2.67;;;1.20;;
66073;SDS011;52859;48.104;11.574;2022-08-01T11:43:04;1.58;;;1.40;;
66073;SDS011;52859;48.104;11.574;2022-08-01T11:45:48;6.55;;;1.30;;
66073;SDS011;52859;48.104;11.574;2022-08-01T11:48:21;1.63;;;1.40;;
66073;SDS011;52859;48.104;11.574;2022-08-01T11:50:53;1.55;;;1.40;;
66073;SDS011;52859;48.104;11.574;2022-08-01T11:53:20;1.30;;;1.20;;
66073;SDS011;52859;48.104;11.574;2022-08-01T11:55:52;1.88;;;1.25;;
66073;SDS011;52859;48.104;11.574;2022-08-01T11:58:23;1.50;;;1.40;;
66073;SDS011;52859;48.104;11.574;2022-08-01T12:00:58;2.90;;;1.15;;
66073;SDS011;52859;48.104;11.574;2022-08-01T12:03:28;2.10;;;1.10;;
66073;SDS011;52859;48.104;11.574;2022-08-01T12:05:59;1.98;;;1.30;;
66073;SDS011;52859;48.104;11.574;2022-08-01T12:08:26;1.98;;;1.20;;
66073;SDS011;52859;48.104;11.574;2022-08-01T12:10:52;3.35;;;1.42;;
66073;SDS011;52859;48.104;11.574;2022-08-01T12:13:27;1.20;;;1.10;;
66073;SDS011;52859;48.104;11.574;2022-08-01T12:15:55;1.50;;;1.20;;
66073;SDS011;52859;48.104;11.574;2022-08-01T12:18:22;1.38;;;1.00;;
66073;SDS011;52859;48.104;11.574;2022-08-01T12:20:48;3.35;;;1.15;;
66073;SDS011;52859;48.104;11.574;2022-08-01T12:23:22;1.10;;;1.00;;
66073;SDS011;52859;48.104;11.574;2022-08-01T12:25:52;1.50;;;1.25;;
66073;SDS011;52859;48.104;11.574;2022-08-01T12:28:19;1.50;;;1.33;;
66073;SDS011;52859;48.104;11.574;2022-08-01T12:30:46;0.90;;;0.90;;
66073;SDS011;52859;48.104;11.574;2022-08-01T12:33:16;2.85;;;1.55;;
66073;SDS011;52859;48.104;11.574;2022-08-01T12:35:43;1.98;;;1.30;;
66073;SDS011;52859;48.104;11.574;2022-08-01T12:38:21;2.17;;;1.50;;
66073;SDS011;52859;48.104;11.574;2022-08-01T12:40:53;1.55;;;1.20;;
66073;SDS011;52859;48.104;11.574;2022-08-01T12:43:20;4.78;;;1.15;;
66073;SDS011;52859;48.104;11.574;2022-08-01T12:45:54;1.33;;;1.23;;
66073;SDS011;52859;48.104;11.574;2022-08-01T12:48:22;1.83;;;1.20;;
66073;SDS011;52859;48.104;11.574;2022-08-01T12:50:49;2.25;;;1.00;;
66073;SDS011;52859;48.104;11.574;2022-08-01T12:53:18;1.30;;;1.00;;
66073;SDS011;52859;48.104;11.574;2022-08-01T12:55:50;0.90;;;0.88;;
66073;SDS011;52859;48.104;11.574;2022-08-01T12:58:30;0.98;;;0.98;;
66073;SDS011;52859;48.104;11.574;2022-08-01T13:01:04;1.38;;;0.90;;
66073;SDS011;52859;48.104;11.574;2022-08-01T13:03:31;1.48;;;0.88;;
66073;SDS011;52859;48.104;11.574;2022-08-01T13:05:57;0.95;;;0.85;;
66073;SDS011;52859;48.104;11.574;2022-08-01T13:08:31;1.08;;;0.98;;
66073;SDS011;52859;48.104;11.574;2022-08-01T13:11:10;1.75;;;0.90;;
66073;SDS011;52859;48.104;11.574;2022-08-01T13:13:45;1.83;;;1.20;;
66073;SDS011;52859;48.104;11.574;2022-08-01T13:16:21;2.65;;;0.90;;
66073;SDS011;52859;48.104;11.574;2022-08-01T13:18:59;1.30;;;1.10;;
66073;SDS011;52859;48.104;11.574;2022-08-01T13:21:29;1.95;;;1.00;;
66073;SDS011;52859;48.104;11.574;2022-08-01T13:24:21;1.02;;;0.93;;
66073;SDS011;52859;48.104;11.574;2022-08-01T13:26:49;1.50;;;1.17;;
66073;SDS011;52859;48.104;11.574;2022-08-01T13:29:20;2.40;;;1.13;;
66073;SDS011;52859;48.104;11.574;2022-08-01T13:31:46;2.47;;;1.13;;
66073;SDS011;52859;48.104;11.574;2022-08-01T13:34:14;1.00;;;1.00;;
66073;SDS011;52859;48.104;11.574;2022-08-01T13:36:40;1.95;;;1.10;;
66073;SDS011;52859;48.104;11.574;2022-08-01T13:39:14;2.38;;;1.15;;
66073;SDS011;52859;48.104;11.574;2022-08-01T13:41:59;2.45;;;1.30;;
66073;SDS011;52859;48.104;11.574;2022-08-01T13:44:25;4.88;;;1.65;;
66073;SDS011;52859;48.104;11.574;2022-08-01T13:46:51;1.83;;;1.20;;
66073;SDS011;52859;48.104;11.574;2022-08-01T13:49:18;1.30;;;1.02;;
66073;SDS011;52859;48.104;11.574;2022-08-01T13:51:45;1.95;;;0.82;;
66073;SDS011;52859;48.104;11.574;2022-08-01T13:54:12;1.17;;;1.02;;
66073;SDS011;52859;48.104;11.574;2022-08-01T13:56:39;2.70;;;1.30;;
66073;SDS011;52859;48.104;11.574;2022-08-01T13:59:05;2.30;;;1.20;;
66073;SDS011;52859;48.104;11.574;2022-08-01T14:01:33;2.72;;;1.25;;
66073;SDS011;52859;48.104;11.574;2022-08-01T14:04:00;1.05;;;0.90;;
66073;SDS011;52859;48.104;11.574;2022-08-01T14:06:26;1.58;;;0.88;;
66073;SDS011;52859;48.104;11.574;2022-08-01T14:08:52;1.10;;;0.80;;
66073;SDS011;52859;48.104;11.574;2022-08-01T14:11:19;2.78;;;1.20;;
66073;SDS011;52859;48.104;11.574;2022-08-01T14:13:46;7.75;;;1.17;;
66073;SDS011;52859;48.104;11.574;2022-08-01T14:16:12;1.40;;;1.10;;
66073;SDS011;52859;48.104;11.574;2022-08-01T14:18:40;1.23;;;1.10;;
66073;SDS011;52859;48.104;11.574;2022-08-01T14:21:09;1.77;;;1.10;;
66073;SDS011;52859;48.104;11.574;2022-08-01T14:23:36;1.45;;;1.20;;
66073;SDS011;52859;48.104;11.574;2022-08-01T14:26:02;1.48;;;1.10;;
66073;SDS011;52859;48.104;11.574;2022-08-01T14:28:37;2.35;;;1.10;;
66073;SDS011;52859;48.104;11.574;2022-08-01T14:31:04;3.30;;;1.10;;
66073;SDS011;52859;48.104;11.574;2022-08-01T14:33:34;1.38;;;1.10;;
66073;SDS011;52859;48.104;11.574;2022-08-01T14:36:01;3.20;;;1.33;;
66073;SDS011;52859;48.104;11.574;2022-08-01T14:38:48;1.42;;;1.17;;
66073;SDS011;52859;48.104;11.574;2022-08-01T14:41:14;2.53;;;1.00;;
66073;SDS011;52859;48.104;11.574;2022-08-01T14:43:41;1.48;;;1.20;;
66073;SDS011;52859;48.104;11.574;2022-08-01T14:46:07;1.92;;;1.30;;
66073;SDS011;52859;48.104;11.574;2022-08-01T14:48:36;1.88;;;1.45;;
66073;SDS011;52859;48.104;11.574;2022-08-01T14:51:02;2.17;;;1.40;;
66073;SDS011;52859;48.104;11.574;2022-08-01T14:53:29;1.65;;;1.38;;
66073;SDS011;52859;48.104;11.574;2022-08-01T14:55:56;1.58;;;1.48;;
66073;SDS011;52859;48.104;11.574;2022-08-01T14:58:22;1.88;;;1.30;;
66073;SDS011;52859;48.104;11.574;2022-08-01T15:00:49;3.70;;;1.63;;
66073;SDS011;52859;48.104;11.574;2022-08-01T15:03:20;2.20;;;1.60;;
66073;SDS011;52859;48.104;11.574;2022-08-01T15:05:47;2.13;;;1.48;;
66073;SDS011;52859;48.104;11.574;2022-08-01T15:08:13;1.77;;;1.52;;
66073;SDS011;52859;48.104;11.574;2022-08-01T15:10:40;2.83;;;1.52;;